createdAt,value
2024-01-04T00:00:58.926Z,49.24
2024-01-04T00:03:27.040Z,49.19
2024-01-04T00:05:54.171Z,49.16
2024-01-04T00:08:21.214Z,49.13
2024-01-04T00:10:48.245Z,49.13
2024-01-04T00:13:15.348Z,49.16
2024-01-04T00:15:42.661Z,49.17
2024-01-04T00:18:10.265Z,49.26
2024-01-04T00:20:37.402Z,49.42
2024-01-04T00:23:05.016Z,49.68
2024-01-04T00:25:31.879Z,49.96
2024-01-04T00:27:58.837Z,50.07
2024-01-04T00:30:25.895Z,50.09
2024-01-04T00:32:53.095Z,50.22
2024-01-04T00:35:20.146Z,50.08
2024-01-04T00:37:47.240Z,49.91
2024-01-04T00:40:14.347Z,50.07
2024-01-04T00:42:41.272Z,50.34
2024-01-04T00:45:08.662Z,50.57
2024-01-04T00:47:35.993Z,50.58
2024-01-04T00:50:03.595Z,50.49
2024-01-04T00:52:30.752Z,50.32
2024-01-04T00:54:58.796Z,50.18
2024-01-04T00:57:25.850Z,50.01
2024-01-04T00:59:52.850Z,49.95
2024-01-04T01:02:19.923Z,49.84
2024-01-04T01:04:46.793Z,49.68
2024-01-04T01:07:14.025Z,49.50
2024-01-04T01:09:41.071Z,49.46
2024-01-04T01:12:08.270Z,49.52
2024-01-04T01:14:35.419Z,49.42
2024-01-04T01:17:02.908Z,49.46
2024-01-04T01:19:30.185Z,49.38
2024-01-04T01:21:57.414Z,49.33
2024-01-04T01:24:24.383Z,49.30
2024-01-04T01:26:51.448Z,49.31
2024-01-04T01:29:18.451Z,49.21
2024-01-04T01:31:45.490Z,49.25
2024-01-04T01:34:13.193Z,49.33
2024-01-04T01:36:41.551Z,49.48
2024-01-04T01:39:09.608Z,49.59
2024-01-04T01:41:36.695Z,49.53
2024-01-04T01:44:03.808Z,49.39
2024-01-04T01:46:30.922Z,49.41
2024-01-04T01:48:58.208Z,49.43
2024-01-04T01:51:25.261Z,49.48
2024-01-04T01:53:52.350Z,49.49
2024-01-04T01:56:20.266Z,49.51
2024-01-04T01:58:48.623Z,49.42
2024-01-04T02:01:15.729Z,49.37
2024-01-04T02:03:43.132Z,49.32
2024-01-04T02:06:10.365Z,49.37
2024-01-04T02:08:37.581Z,49.48
2024-01-04T02:11:04.504Z,49.46
2024-01-04T02:13:31.464Z,49.49
2024-01-04T02:15:58.388Z,49.63
2024-01-04T02:18:25.588Z,49.50
2024-01-04T02:20:53.317Z,49.48
2024-01-04T02:23:20.754Z,49.54
2024-01-04T02:25:47.720Z,49.54
2024-01-04T02:28:14.780Z,49.58
2024-01-04T02:30:41.796Z,49.61
2024-01-04T02:33:09.922Z,49.62
2024-01-04T02:35:37.269Z,49.60
2024-01-04T02:38:04.689Z,49.60
2024-01-04T02:40:31.735Z,49.60
2024-01-04T02:42:58.674Z,49.60
2024-01-04T02:45:25.728Z,49.69
2024-01-04T02:47:52.746Z,49.59
2024-01-04T02:50:20.003Z,49.61
2024-01-04T02:52:47.215Z,49.63
2024-01-04T02:55:14.264Z,49.79
2024-01-04T02:57:41.680Z,49.69
2024-01-04T03:00:09.645Z,49.46
2024-01-04T03:02:37.547Z,49.25
2024-01-04T03:05:05.991Z,49.12
2024-01-04T03:07:32.959Z,49.09
2024-01-04T03:10:00.412Z,49.11
2024-01-04T03:12:27.174Z,49.21
2024-01-04T03:14:54.367Z,49.13
2024-01-04T03:17:22.092Z,49.15
2024-01-04T03:19:49.153Z,49.16
2024-01-04T03:22:16.157Z,48.86
2024-01-04T03:24:43.122Z,48.90
2024-01-04T03:27:13.082Z,48.95
2024-01-04T03:29:40.504Z,49.10
2024-01-04T03:32:07.650Z,49.15
2024-01-04T03:34:35.432Z,49.22
2024-01-04T03:37:02.843Z,49.23
2024-01-04T03:39:29.997Z,49.38
2024-01-04T03:41:56.819Z,49.50
2024-01-04T03:44:23.681Z,49.61
2024-01-04T03:46:50.848Z,49.72
2024-01-04T03:49:18.029Z,49.69
2024-01-04T03:51:45.031Z,49.73
2024-01-04T03:54:12.099Z,49.74
2024-01-04T03:56:39.285Z,49.58
2024-01-04T03:59:06.362Z,49.58
2024-01-04T04:01:33.391Z,49.55
2024-01-04T04:04:00.468Z,49.46
2024-01-04T04:06:27.526Z,49.44
2024-01-04T04:08:54.561Z,49.47
2024-01-04T04:11:21.669Z,49.44
2024-01-04T04:13:48.611Z,49.36
2024-01-04T04:16:15.440Z,49.28
2024-01-04T04:18:42.506Z,49.21
2024-01-04T04:21:09.591Z,49.22
2024-01-04T04:23:37.835Z,49.16
2024-01-04T04:26:05.978Z,49.16
2024-01-04T04:28:33.141Z,49.23
2024-01-04T04:31:00.176Z,49.23
2024-01-04T04:33:27.563Z,49.18
2024-01-04T04:36:00.946Z,49.35
2024-01-04T04:38:29.180Z,49.26
2024-01-04T04:40:56.224Z,49.18
2024-01-04T04:43:23.202Z,49.17
2024-01-04T04:45:50.159Z,49.27
2024-01-04T04:48:17.586Z,49.27
2024-01-04T04:50:44.661Z,49.28
2024-01-04T04:53:11.595Z,49.57
2024-01-04T04:55:38.554Z,49.65
2024-01-04T04:58:05.514Z,49.68
2024-01-04T05:00:32.551Z,49.74
2024-01-04T05:02:59.551Z,49.70
2024-01-04T05:05:26.652Z,49.87
2024-01-04T05:07:53.696Z,49.93
2024-01-04T05:10:20.725Z,49.99
2024-01-04T05:12:48.295Z,50.07
2024-01-04T05:15:15.360Z,50.08
2024-01-04T05:17:42.483Z,50.10
2024-01-04T05:20:09.946Z,50.15
2024-01-04T05:22:36.902Z,50.12
2024-01-04T05:25:04.563Z,50.09
2024-01-04T05:27:31.598Z,50.05
2024-01-04T05:29:58.462Z,49.98
2024-01-04T05:32:25.760Z,49.90
2024-01-04T05:34:52.735Z,49.78
2024-01-04T05:37:19.788Z,49.66
2024-01-04T05:39:47.442Z,49.61
2024-01-04T05:42:14.345Z,49.42
2024-01-04T05:44:41.653Z,49.39
2024-01-04T05:47:08.673Z,49.35
2024-01-04T05:49:37.262Z,49.19
2024-01-04T05:52:04.720Z,49.28
2024-01-04T05:54:32.379Z,49.28
2024-01-04T05:56:59.552Z,49.29
2024-01-04T05:59:26.469Z,49.32
2024-01-04T06:01:53.528Z,49.36
2024-01-04T06:04:20.412Z,49.54
2024-01-04T06:06:50.345Z,49.46
2024-01-04T06:09:21.447Z,49.64
2024-01-04T06:11:48.950Z,49.70
2024-01-04T06:14:15.923Z,49.76
2024-01-04T06:16:42.666Z,49.87
2024-01-04T06:19:09.767Z,50.09
2024-01-04T06:21:37.406Z,50.50
2024-01-04T06:24:04.831Z,50.55
2024-01-04T06:26:31.981Z,50.13
2024-01-04T06:28:58.940Z,49.68
2024-01-04T06:31:25.922Z,49.48
2024-01-04T06:33:53.158Z,49.29
2024-01-04T06:36:20.855Z,49.07
2024-01-04T06:38:51.158Z,49.10
2024-01-04T06:41:20.095Z,49.00
2024-01-04T06:43:47.143Z,48.78
2024-01-04T06:46:17.159Z,48.65
2024-01-04T06:48:44.938Z,48.55
2024-01-04T06:51:14.016Z,48.39
2024-01-04T06:53:40.997Z,48.46
2024-01-04T06:56:07.901Z,48.86
2024-01-04T06:58:36.295Z,49.14
2024-01-04T07:01:03.369Z,49.40
2024-01-04T07:03:31.237Z,49.53
2024-01-04T07:05:58.365Z,49.53
2024-01-04T07:08:25.287Z,49.34
2024-01-04T07:10:52.435Z,49.00
2024-01-04T07:13:19.487Z,48.78
2024-01-04T07:15:46.744Z,48.71
2024-01-04T07:18:13.863Z,48.80
2024-01-04T07:20:42.299Z,48.82
2024-01-04T07:23:09.316Z,48.83
2024-01-04T07:25:37.096Z,48.78
2024-01-04T07:28:06.033Z,48.79
2024-01-04T07:30:32.912Z,48.74
2024-01-04T07:33:01.282Z,48.70
2024-01-04T07:35:28.668Z,48.71
2024-01-04T07:37:55.805Z,48.50
2024-01-04T07:40:22.940Z,48.25
2024-01-04T07:42:49.783Z,48.18
2024-01-04T07:45:16.892Z,48.05
2024-01-04T07:47:43.942Z,47.85
2024-01-04T07:50:12.767Z,47.84
2024-01-04T07:52:41.243Z,47.82
2024-01-04T07:55:08.644Z,47.74
2024-01-04T07:57:35.569Z,47.69
2024-01-04T08:00:04.675Z,47.64
2024-01-04T08:02:40.296Z,47.68
2024-01-04T08:05:09.544Z,47.52
2024-01-04T08:07:36.933Z,47.48
2024-01-04T08:10:04.511Z,47.35
2024-01-04T08:12:31.448Z,47.37
2024-01-04T08:14:58.413Z,47.37
2024-01-04T08:17:25.971Z,47.26
2024-01-04T08:19:53.266Z,47.25
2024-01-04T08:22:21.883Z,47.17
2024-01-04T08:24:48.730Z,47.13
2024-01-04T08:27:19.611Z,47.15
2024-01-04T08:29:49.488Z,47.20
2024-01-04T08:32:17.648Z,47.18
2024-01-04T08:34:44.600Z,47.19
2024-01-04T08:37:11.743Z,47.12
2024-01-04T08:39:38.811Z,47.19
2024-01-04T08:42:06.988Z,47.16
2024-01-04T08:44:33.808Z,47.15
2024-01-04T08:47:00.862Z,47.10
2024-01-04T08:49:28.156Z,47.18
2024-01-04T08:51:56.484Z,47.27
2024-01-04T08:54:24.090Z,47.35
2024-01-04T08:56:51.213Z,47.49
2024-01-04T08:59:18.848Z,47.62
2024-01-04T09:01:45.686Z,47.72
2024-01-04T09:04:13.374Z,47.72
2024-01-04T09:06:41.219Z,47.74
2024-01-04T09:09:08.710Z,47.83
2024-01-04T09:11:40.993Z,47.81
2024-01-04T09:14:12.498Z,47.86
2024-01-04T09:16:40.258Z,47.78
2024-01-04T09:19:07.541Z,47.69
2024-01-04T09:21:35.080Z,47.69
2024-01-04T09:24:02.158Z,47.55
2024-01-04T09:26:29.578Z,47.44
2024-01-04T09:28:57.155Z,47.41
2024-01-04T09:31:27.847Z,47.23
2024-01-04T09:33:57.109Z,47.22
2024-01-04T09:36:24.537Z,47.12
2024-01-04T09:38:51.611Z,47.11
2024-01-04T09:41:30.198Z,46.84
2024-01-04T09:44:06.835Z,46.75
2024-01-04T09:46:37.701Z,46.85
2024-01-04T09:49:06.036Z,46.74
2024-01-04T09:51:38.868Z,46.71
2024-01-04T09:54:10.019Z,46.72
2024-01-04T09:56:38.472Z,46.60
2024-01-04T09:59:05.529Z,46.52
2024-01-04T10:01:36.625Z,46.51
2024-01-04T10:04:14.100Z,47.25
2024-01-04T10:06:43.878Z,47.78
2024-01-04T10:09:27.399Z,48.00
2024-01-04T10:12:09.364Z,48.06
2024-01-04T10:14:36.859Z,48.26
2024-01-04T10:17:05.019Z,48.23
2024-01-04T10:19:33.491Z,47.99
2024-01-04T10:22:04.190Z,47.74
2024-01-04T10:24:39.271Z,47.34
2024-01-04T10:27:08.044Z,47.23
2024-01-04T10:29:36.437Z,47.17
2024-01-04T10:32:05.027Z,47.11
2024-01-04T10:34:34.028Z,47.03
2024-01-04T10:37:15.270Z,46.88
2024-01-04T10:39:46.073Z,46.65
2024-01-04T10:42:13.646Z,46.63
2024-01-04T10:44:40.809Z,46.50
2024-01-04T10:47:09.932Z,46.50
2024-01-04T10:49:39.904Z,46.54
2024-01-04T10:52:09.972Z,46.54
2024-01-04T10:54:36.968Z,46.73
2024-01-04T10:57:04.514Z,46.77
2024-01-04T10:59:33.194Z,46.72
2024-01-04T11:02:00.853Z,46.79
2024-01-04T11:04:31.328Z,46.76
2024-01-04T11:06:58.820Z,46.59
2024-01-04T11:09:26.093Z,46.30
2024-01-04T11:11:54.421Z,45.94
2024-01-04T11:14:22.815Z,45.45
2024-01-04T11:17:05.730Z,45.43
2024-01-04T11:20:09.551Z,45.10
2024-01-04T11:22:49.993Z,44.99
2024-01-04T11:25:51.786Z,44.83
2024-01-04T11:28:29.551Z,44.61
2024-01-04T11:31:04.771Z,44.42
2024-01-04T11:33:33.380Z,44.48
2024-01-04T11:36:02.574Z,44.42
2024-01-04T11:38:36.385Z,44.52
2024-01-04T11:41:04.520Z,44.29
2024-01-04T11:43:37.593Z,44.25
2024-01-04T11:46:19.480Z,43.99
2024-01-04T11:48:52.607Z,43.79
2024-01-04T11:51:50.292Z,43.76
2024-01-04T11:54:21.617Z,43.70
2024-01-04T11:56:50.059Z,43.80
2024-01-04T11:59:18.565Z,43.87
2024-01-04T12:01:45.678Z,44.08
2024-01-04T12:04:16.700Z,44.46
2024-01-04T12:06:46.433Z,45.06
2024-01-04T12:09:18.248Z,45.74
2024-01-04T12:11:55.986Z,46.17
2024-01-04T12:14:26.100Z,46.32
2024-01-04T12:16:53.141Z,46.32
2024-01-04T12:19:20.769Z,46.42
2024-01-04T12:21:48.131Z,46.63
2024-01-04T12:24:16.654Z,46.65
2024-01-04T12:26:43.546Z,46.81
2024-01-04T12:29:10.624Z,46.88
2024-01-04T12:31:39.668Z,47.32
2024-01-04T12:34:10.986Z,47.69
2024-01-04T12:36:38.309Z,47.89
2024-01-04T12:39:10.253Z,47.97
2024-01-04T12:41:40.031Z,48.23
2024-01-04T12:44:08.288Z,48.49
2024-01-04T12:46:36.633Z,48.37
2024-01-04T12:49:08.298Z,47.99
2024-01-04T12:51:39.220Z,47.86
2024-01-04T12:54:06.919Z,47.81
2024-01-04T12:56:37.101Z,47.87
2024-01-04T12:59:07.717Z,47.96
2024-01-04T13:01:35.112Z,47.97
2024-01-04T13:04:02.438Z,47.99
2024-01-04T13:06:30.688Z,47.99
2024-01-04T13:08:58.440Z,48.01
2024-01-04T13:11:25.891Z,47.82
2024-01-04T13:13:53.313Z,47.62
2024-01-04T13:16:20.483Z,47.59
2024-01-04T13:18:47.903Z,47.50
2024-01-04T13:21:15.414Z,47.52
2024-01-04T13:23:42.994Z,47.64
2024-01-04T13:26:10.422Z,47.66
2024-01-04T13:28:37.829Z,47.70
2024-01-04T13:31:05.261Z,47.65
2024-01-04T13:33:33.712Z,47.80
2024-01-04T13:36:01.695Z,47.76
2024-01-04T13:38:29.219Z,47.89
2024-01-04T13:40:56.380Z,47.98
2024-01-04T13:43:23.939Z,48.15
2024-01-04T13:45:54.632Z,48.05
2024-01-04T13:48:22.000Z,48.20
2024-01-04T13:50:49.283Z,48.18
2024-01-04T13:53:18.955Z,48.14
2024-01-04T13:55:48.074Z,48.18
2024-01-04T13:58:15.304Z,48.12
2024-01-04T14:00:42.781Z,48.30
2024-01-04T14:03:09.707Z,48.25
2024-01-04T14:05:40.334Z,48.22
2024-01-04T14:08:09.844Z,48.19
2024-01-04T14:10:38.212Z,48.22
2024-01-04T14:13:05.260Z,48.18
2024-01-04T14:15:32.909Z,48.27
2024-01-04T14:18:00.007Z,48.75
2024-01-04T14:20:29.065Z,49.23
2024-01-04T14:22:56.227Z,49.63
2024-01-04T14:25:23.262Z,49.98
2024-01-04T14:27:51.007Z,50.44
2024-01-04T14:30:18.120Z,50.85
2024-01-04T14:32:46.930Z,51.04
2024-01-04T14:35:15.181Z,51.18
2024-01-04T14:37:44.736Z,51.17
2024-01-04T14:40:17.520Z,51.24
2024-01-04T14:42:44.931Z,51.31
2024-01-04T14:45:16.814Z,51.39
2024-01-04T14:47:45.463Z,51.43
2024-01-04T14:50:13.898Z,51.51
2024-01-04T14:52:41.152Z,51.48
2024-01-04T14:55:10.343Z,51.38
2024-01-04T14:57:43.541Z,51.34
2024-01-04T15:00:12.482Z,51.22
2024-01-04T15:02:40.248Z,51.04
2024-01-04T15:05:07.549Z,50.88
2024-01-04T15:07:35.229Z,50.71
2024-01-04T15:10:02.773Z,50.60
2024-01-04T15:12:30.955Z,50.43
2024-01-04T15:14:57.992Z,50.38
2024-01-04T15:17:25.418Z,50.32
2024-01-04T15:19:52.390Z,50.19
2024-01-04T15:22:19.664Z,50.23
2024-01-04T15:24:47.758Z,50.11
2024-01-04T15:27:14.788Z,50.03
2024-01-04T15:29:42.044Z,50.03
2024-01-04T15:32:09.974Z,50.12
2024-01-04T15:34:37.298Z,50.14
2024-01-04T15:37:04.833Z,50.11
2024-01-04T15:39:32.149Z,50.20
2024-01-04T15:42:00.051Z,50.19
2024-01-04T15:44:27.063Z,50.17
2024-01-04T15:46:54.205Z,50.20
2024-01-04T15:49:22.965Z,50.25
2024-01-04T15:51:50.242Z,50.37
2024-01-04T15:54:17.353Z,50.44
2024-01-04T15:56:45.215Z,50.49
2024-01-04T15:59:12.308Z,50.65
2024-01-04T16:01:40.640Z,50.65
2024-01-04T16:04:08.164Z,50.84
2024-01-04T16:06:36.444Z,50.99
2024-01-04T16:09:04.633Z,51.15
2024-01-04T16:11:31.658Z,51.30
2024-01-04T16:13:58.779Z,51.58
2024-01-04T16:16:26.772Z,51.85
2024-01-04T16:18:54.481Z,52.45
2024-01-04T16:21:21.832Z,53.12
2024-01-04T16:23:49.097Z,53.51
2024-01-04T16:26:17.903Z,53.87
2024-01-04T16:28:45.291Z,54.09
2024-01-04T16:31:12.343Z,54.29
2024-01-04T16:33:39.702Z,54.48
2024-01-04T16:36:09.925Z,54.69
2024-01-04T16:38:37.291Z,54.95
2024-01-04T16:41:08.692Z,55.02
2024-01-04T16:43:35.636Z,55.13
2024-01-04T16:46:02.982Z,55.12
2024-01-04T16:48:30.518Z,55.26
2024-01-04T16:50:57.784Z,55.46
2024-01-04T16:53:25.098Z,55.56
2024-01-04T16:55:52.737Z,55.65
2024-01-04T16:58:19.761Z,55.76
2024-01-04T17:00:47.130Z,55.96
2024-01-04T17:03:14.146Z,55.92
2024-01-04T17:05:42.283Z,56.03
2024-01-04T17:08:09.554Z,56.04
2024-01-04T17:10:40.537Z,56.05
2024-01-04T17:13:11.969Z,56.02
2024-01-04T17:15:39.150Z,56.05
2024-01-04T17:18:06.361Z,56.05
2024-01-04T17:20:33.584Z,56.08
2024-01-04T17:23:03.265Z,56.07
2024-01-04T17:25:30.534Z,56.06
2024-01-04T17:27:57.537Z,55.95
2024-01-04T17:30:24.748Z,55.91
2024-01-04T17:32:53.752Z,55.81
2024-01-04T17:35:21.638Z,55.80
2024-01-04T17:37:48.789Z,55.70
2024-01-04T17:40:16.125Z,55.59
2024-01-04T17:42:44.417Z,55.43
2024-01-04T17:45:12.037Z,55.34
2024-01-04T17:47:40.281Z,55.18
2024-01-04T17:50:08.887Z,55.09
2024-01-04T17:52:36.200Z,55.14
2024-01-04T17:55:03.745Z,55.11
2024-01-04T17:57:31.057Z,55.09
2024-01-04T17:59:58.499Z,55.06
2024-01-04T18:02:26.157Z,55.10
2024-01-04T18:04:53.323Z,55.26
2024-01-04T18:07:21.655Z,55.33
2024-01-04T18:09:48.713Z,55.34
2024-01-04T18:12:15.804Z,55.40
2024-01-04T18:14:43.125Z,55.47
2024-01-04T18:17:10.654Z,55.59
2024-01-04T18:19:37.657Z,55.67
2024-01-04T18:22:04.973Z,55.85
2024-01-04T18:24:32.544Z,55.93
2024-01-04T18:26:59.575Z,55.97
2024-01-04T18:29:26.750Z,56.11
2024-01-04T18:31:53.829Z,56.15
2024-01-04T18:34:22.764Z,56.21
2024-01-04T18:36:50.210Z,56.32
2024-01-04T18:39:17.425Z,56.29
2024-01-04T18:41:44.739Z,56.32
2024-01-04T18:44:12.880Z,56.31
2024-01-04T18:46:39.825Z,56.25
2024-01-04T18:49:08.013Z,56.22
2024-01-04T18:51:35.099Z,56.14
2024-01-04T18:54:02.543Z,56.10
2024-01-04T18:56:29.966Z,56.13
2024-01-04T18:58:57.239Z,56.05
2024-01-04T19:01:24.336Z,56.00
2024-01-04T19:03:51.647Z,56.03
2024-01-04T19:06:19.148Z,55.91
2024-01-04T19:08:46.284Z,55.83
2024-01-04T19:11:13.470Z,55.80
2024-01-04T19:13:40.661Z,55.74
2024-01-04T19:16:10.461Z,55.68
2024-01-04T19:18:38.510Z,55.53
2024-01-04T19:21:06.771Z,55.48
2024-01-04T19:23:33.619Z,55.32
2024-01-04T19:26:00.678Z,55.24
2024-01-04T19:28:27.820Z,55.19
2024-01-04T19:30:55.064Z,55.00
2024-01-04T19:33:22.328Z,54.92
2024-01-04T19:35:49.548Z,54.87
2024-01-04T19:38:16.457Z,54.78
2024-01-04T19:40:44.381Z,54.65
2024-01-04T19:43:11.529Z,54.63
2024-01-04T19:45:39.107Z,54.51
2024-01-04T19:48:07.107Z,54.38
2024-01-04T19:50:34.306Z,54.29
2024-01-04T19:53:01.367Z,54.24
2024-01-04T19:55:28.621Z,54.12
2024-01-04T19:57:56.283Z,53.96
2024-01-04T20:00:23.521Z,53.80
2024-01-04T20:02:50.540Z,53.76
2024-01-04T20:05:17.679Z,53.72
2024-01-04T20:07:44.621Z,53.69
2024-01-04T20:10:11.707Z,53.72
2024-01-04T20:12:38.851Z,53.60
2024-01-04T20:15:06.431Z,53.57
2024-01-04T20:17:34.286Z,53.48
2024-01-04T20:20:01.715Z,53.33
2024-01-04T20:22:29.136Z,53.33
2024-01-04T20:24:56.658Z,53.28
2024-01-04T20:27:26.319Z,53.22
2024-01-04T20:29:53.656Z,53.12
2024-01-04T20:32:20.770Z,53.01
2024-01-04T20:34:47.911Z,52.92
2024-01-04T20:37:15.158Z,52.85
2024-01-04T20:39:42.327Z,52.83
2024-01-04T20:42:09.705Z,52.72
2024-01-04T20:44:36.916Z,52.69
2024-01-04T20:47:04.396Z,52.64
2024-01-04T20:49:31.733Z,52.58
2024-01-04T20:51:59.052Z,52.54
2024-01-04T20:54:26.291Z,52.54
2024-01-04T20:56:54.143Z,52.51
2024-01-04T20:59:21.256Z,52.54
2024-01-04T21:01:48.410Z,52.56
2024-01-04T21:04:15.811Z,52.62
2024-01-04T21:06:46.327Z,52.70
2024-01-04T21:09:19.635Z,52.72
2024-01-04T21:11:51.864Z,52.78
2024-01-04T21:14:19.822Z,52.73
2024-01-04T21:16:47.574Z,52.82
2024-01-04T21:19:14.672Z,52.87
2024-01-04T21:21:43.880Z,52.87
2024-01-04T21:24:14.043Z,53.00
2024-01-04T21:26:41.481Z,53.00
2024-01-04T21:29:08.643Z,53.01
2024-01-04T21:31:36.259Z,53.02
2024-01-04T21:34:03.430Z,53.13
2024-01-04T21:36:30.798Z,53.04
2024-01-04T21:38:57.936Z,53.03
2024-01-04T21:41:25.105Z,53.10
2024-01-04T21:43:52.162Z,53.10
2024-01-04T21:46:19.441Z,53.20
2024-01-04T21:48:47.037Z,53.15
2024-01-04T21:51:21.305Z,53.23
2024-01-04T21:53:49.450Z,53.21
2024-01-04T21:56:26.135Z,53.27
2024-01-04T21:58:53.897Z,53.24
2024-01-04T22:01:25.032Z,53.30
2024-01-04T22:03:52.656Z,53.39
2024-01-04T22:06:21.090Z,53.40
2024-01-04T22:08:48.068Z,53.40
2024-01-04T22:11:15.293Z,53.28
2024-01-04T22:13:42.422Z,53.32
2024-01-04T22:16:09.364Z,53.32
2024-01-04T22:18:36.871Z,53.28
2024-01-04T22:21:03.990Z,53.24
2024-01-04T22:23:31.754Z,53.21
2024-01-04T22:25:58.594Z,53.26
2024-01-04T22:28:25.627Z,53.25
2024-01-04T22:30:53.191Z,53.22
2024-01-04T22:33:20.310Z,53.24
2024-01-04T22:35:49.375Z,53.28
2024-01-04T22:38:16.383Z,53.18
2024-01-04T22:40:43.316Z,52.94
2024-01-04T22:43:10.158Z,52.79
2024-01-04T22:45:37.982Z,52.83
2024-01-04T22:48:06.126Z,52.75
2024-01-04T22:50:33.142Z,52.80
2024-01-04T22:53:00.471Z,52.86
2024-01-04T22:55:27.454Z,52.90
2024-01-04T22:57:54.405Z,52.87
2024-01-04T23:00:23.076Z,52.92
2024-01-04T23:02:51.582Z,52.87
2024-01-04T23:05:18.934Z,52.90
2024-01-04T23:07:45.947Z,52.82
2024-01-04T23:10:12.875Z,52.81
2024-01-04T23:12:40.042Z,52.80
2024-01-04T23:15:07.535Z,52.75
2024-01-04T23:17:34.968Z,52.94
2024-01-04T23:20:07.305Z,52.95
2024-01-04T23:22:34.917Z,53.04
2024-01-04T23:25:03.594Z,53.13
2024-01-04T23:27:31.184Z,53.13
2024-01-04T23:29:58.189Z,53.13
2024-01-04T23:32:25.185Z,53.19
2024-01-04T23:34:52.887Z,53.24
2024-01-04T23:37:20.152Z,53.30
2024-01-04T23:39:47.084Z,53.24
2024-01-04T23:42:14.467Z,53.22
2024-01-04T23:44:41.484Z,53.29
2024-01-04T23:47:08.322Z,53.32
2024-01-04T23:49:35.359Z,53.34
2024-01-04T23:52:02.388Z,53.38
2024-01-04T23:54:29.442Z,53.41
2024-01-04T23:56:56.476Z,53.44
2024-01-04T23:59:23.453Z,53.44
